createdAt,value
2019-01-05T00:00:28.499Z,14.17
2019-01-05T00:03:10.571Z,12.15
2019-01-05T00:06:15.566Z,18.25
2019-01-05T00:09:04.228Z,9.00
2019-01-05T00:12:02.640Z,8.80
2019-01-05T00:15:05.705Z,11.27
2019-01-05T00:18:11.536Z,9.57
2019-01-05T00:21:09.598Z,8.73
2019-01-05T00:23:59.516Z,5.58
2019-01-05T00:27:04.400Z,5.17
2019-01-05T00:29:50.253Z,4.75
2019-01-05T00:32:46.136Z,7.40
2019-01-05T00:36:02.409Z,8.50
2019-01-05T00:38:59.254Z,9.53
2019-01-05T00:41:55.380Z,8.03
2019-01-05T00:44:36.798Z,5.40
2019-01-05T00:47:28.540Z,8.95
2019-01-05T00:50:19.966Z,10.60
2019-01-05T00:53:09.614Z,15.03
2019-01-05T00:56:09.928Z,12.25
2019-01-05T00:58:56.596Z,15.70
2019-01-05T01:01:44.777Z,19.00
2019-01-05T01:04:33.068Z,13.15
2019-01-05T01:07:34.720Z,15.18
2019-01-05T01:10:36.698Z,9.13
2019-01-05T01:13:24.868Z,18.75
2019-01-05T01:16:13.265Z,8.85
2019-01-05T01:19:02.212Z,8.65
2019-01-05T01:22:03.727Z,11.90
2019-01-05T01:24:59.172Z,15.45
2019-01-05T01:27:51.877Z,9.53
2019-01-05T01:30:49.399Z,14.10
2019-01-05T01:33:43.927Z,13.38
2019-01-05T01:36:24.572Z,11.48
2019-01-05T01:39:43.677Z,2.92
2019-01-05T01:42:51.779Z,7.80
2019-01-05T01:45:50.972Z,2.35
2019-01-05T01:48:39.059Z,4.60
2019-01-05T01:51:35.523Z,7.40
2019-01-05T01:54:37.121Z,4.67
2019-01-05T01:57:34.650Z,14.53
2019-01-05T02:00:37.849Z,7.80
2019-01-05T02:03:32.878Z,8.83
2019-01-05T02:06:23.484Z,6.58
2019-01-05T02:09:21.132Z,13.75
2019-01-05T02:12:25.533Z,7.60
2019-01-05T02:15:19.251Z,4.22
2019-01-05T02:18:49.578Z,9.65
2019-01-05T02:22:19.164Z,2.98
2019-01-05T02:25:56.059Z,4.93
2019-01-05T02:29:50.491Z,10.48
2019-01-05T02:33:19.064Z,6.25
2019-01-05T02:36:53.177Z,9.00
2019-01-05T02:40:43.466Z,12.73
2019-01-05T02:44:32.204Z,4.80
2019-01-05T02:48:32.811Z,10.30
2019-01-05T02:52:10.160Z,10.77
2019-01-05T02:56:03.167Z,13.10
2019-01-05T03:00:03.616Z,11.33
2019-01-05T03:03:47.026Z,10.75
2019-01-05T03:07:14.952Z,9.90
2019-01-05T03:11:33.333Z,2.12
2019-01-05T03:15:26.347Z,6.33
2019-01-05T03:19:13.402Z,4.00
2019-01-05T03:23:14.740Z,8.83
2019-01-05T03:26:57.689Z,6.40
2019-01-05T03:30:49.535Z,10.03
2019-01-05T03:34:47.885Z,6.80
2019-01-05T03:38:47.214Z,8.50
2019-01-05T03:42:53.488Z,8.20
2019-01-05T03:46:31.618Z,4.05
2019-01-05T03:50:56.355Z,3.12
2019-01-05T03:54:47.804Z,6.10
2019-01-05T03:58:35.643Z,11.30
2019-01-05T04:01:57.391Z,5.30
2019-01-05T04:06:05.311Z,10.88
2019-01-05T04:10:03.838Z,6.42
2019-01-05T04:13:54.618Z,10.40
2019-01-05T04:17:42.897Z,5.60
2019-01-05T04:21:44.299Z,2.80
2019-01-05T04:25:10.194Z,7.10
2019-01-05T04:29:26.838Z,7.47
2019-01-05T04:33:01.489Z,6.45
2019-01-05T04:36:42.088Z,6.60
2019-01-05T04:40:40.879Z,4.03
2019-01-05T04:45:15.463Z,4.10
2019-01-05T04:49:10.142Z,8.68
2019-01-05T04:53:28.890Z,5.00
2019-01-05T04:57:28.389Z,2.98
2019-01-05T05:01:10.480Z,8.35
2019-01-05T05:05:06.208Z,4.10
2019-01-05T05:09:09.208Z,6.03
2019-01-05T05:13:16.709Z,3.05
2019-01-05T05:17:02.752Z,1.60
2019-01-05T05:20:59.259Z,7.20
2019-01-05T05:24:51.657Z,12.15
2019-01-05T05:29:00.323Z,4.70
2019-01-05T05:32:55.772Z,5.00
2019-01-05T05:36:43.771Z,6.35
2019-01-05T05:40:55.016Z,6.22
2019-01-05T05:44:50.756Z,3.83
2019-01-05T05:48:49.236Z,7.80
2019-01-05T05:52:42.254Z,3.22
2019-01-05T05:56:40.235Z,7.25
2019-01-05T06:00:23.851Z,5.47
2019-01-05T06:04:30.452Z,7.20
2019-01-05T06:08:13.614Z,7.00
2019-01-05T06:12:05.300Z,9.35
2019-01-05T06:15:38.616Z,4.70
2019-01-05T06:19:02.769Z,14.87
2019-01-05T06:23:00.982Z,8.93
2019-01-05T06:26:53.046Z,4.55
2019-01-05T06:30:52.343Z,3.40
2019-01-05T06:34:34.935Z,6.70
2019-01-05T06:38:33.859Z,7.97
2019-01-05T12:43:55.910Z,20.02
2019-01-05T12:47:58.035Z,18.90
2019-01-05T12:52:04.259Z,13.50
2019-01-05T12:56:06.411Z,17.87
2019-01-05T12:59:43.892Z,21.55
2019-01-05T13:03:21.496Z,23.40
2019-01-05T13:07:13.697Z,18.57
2019-01-05T13:10:56.456Z,18.67
2019-01-05T13:14:54.886Z,23.25
2019-01-05T13:19:10.020Z,13.10
2019-01-05T13:23:10.217Z,33.53
2019-01-05T13:27:30.298Z,25.20
2019-01-05T13:31:19.028Z,33.20
2019-01-05T13:34:59.507Z,22.00
2019-01-05T13:39:11.994Z,27.15
2019-01-05T13:43:04.191Z,29.60
2019-01-05T13:47:01.103Z,20.77
2019-01-05T13:50:46.504Z,30.60
2019-01-05T13:53:53.167Z,19.55
2019-01-05T13:57:08.040Z,33.75
2019-01-05T14:00:00.463Z,21.00
2019-01-05T14:02:48.870Z,27.17
2019-01-05T14:05:47.786Z,22.17
2019-01-05T14:08:36.772Z,27.95
2019-01-05T14:11:41.657Z,14.38
2019-01-05T14:14:29.845Z,23.00
2019-01-05T14:17:28.698Z,23.15
2019-01-05T14:20:36.247Z,26.97
2019-01-05T14:23:44.147Z,39.05
2019-01-05T14:26:38.864Z,24.35
2019-01-05T14:29:30.869Z,20.48
2019-01-05T14:32:20.386Z,28.60
2019-01-05T14:35:09.917Z,25.43
2019-01-05T14:38:00.375Z,30.40
2019-01-05T14:40:48.633Z,26.40
2019-01-05T14:43:36.957Z,24.40
2019-01-05T14:46:29.419Z,29.67
2019-01-05T14:49:34.001Z,29.63
2019-01-05T14:52:22.369Z,29.90
2019-01-05T14:55:18.793Z,27.40
2019-01-05T14:58:26.416Z,28.10
2019-01-05T15:01:14.544Z,21.27
2019-01-05T15:04:06.589Z,16.57
2019-01-05T15:07:11.199Z,20.48
2019-01-05T15:10:00.586Z,24.25
2019-01-05T15:12:49.980Z,30.32
2019-01-05T15:15:57.874Z,23.77
2019-01-05T15:18:46.036Z,28.90
2019-01-05T15:21:34.802Z,16.12
2019-01-05T15:24:39.531Z,24.02
2019-01-05T15:27:43.862Z,21.35
2019-01-05T15:30:32.419Z,22.58
2019-01-05T15:33:19.994Z,21.93
2019-01-05T15:36:08.030Z,25.95
2019-01-05T15:38:56.189Z,28.20
2019-01-05T15:41:41.715Z,14.55
2019-01-05T15:44:46.547Z,22.52
2019-01-05T15:47:40.303Z,30.77
2019-01-05T15:50:35.918Z,19.45
2019-01-05T15:53:24.121Z,17.00
2019-01-05T15:56:20.263Z,21.00
2019-01-05T15:59:09.648Z,28.83
2019-01-05T16:02:05.165Z,22.75
2019-01-05T16:05:06.744Z,27.62
2019-01-05T16:07:56.984Z,19.45
2019-01-05T16:10:43.246Z,26.20
2019-01-05T16:13:29.102Z,18.90
2019-01-05T16:16:17.289Z,21.20
2019-01-05T16:19:05.649Z,24.80
2019-01-05T16:21:54.066Z,21.23
2019-01-05T16:24:43.613Z,25.35
2019-01-05T16:27:32.013Z,23.50
2019-01-05T16:30:21.476Z,22.37
2019-01-05T16:33:09.517Z,23.85
2019-01-05T16:36:01.892Z,19.00
2019-01-05T16:39:00.130Z,20.85
2019-01-05T16:41:48.431Z,15.18
2019-01-05T16:44:36.763Z,16.85
2019-01-05T16:47:32.260Z,23.92
2019-01-05T16:50:40.114Z,22.90
2019-01-05T16:53:44.257Z,18.75
2019-01-05T16:56:45.388Z,23.18
2019-01-05T16:59:33.541Z,24.95
2019-01-05T17:02:28.108Z,27.48
2019-01-05T17:05:32.727Z,33.08
2019-01-05T17:08:27.992Z,26.50
2019-01-05T17:11:16.151Z,29.02
2019-01-05T17:14:17.645Z,22.10
2019-01-05T17:17:09.929Z,16.73
2019-01-05T17:20:01.121Z,28.40
2019-01-05T17:22:49.475Z,19.55
2019-01-05T17:25:51.032Z,24.40
2019-01-05T17:28:48.008Z,21.20
2019-01-05T17:31:43.485Z,20.50
2019-01-05T17:34:32.979Z,20.82
2019-01-05T17:37:22.369Z,28.43
2019-01-05T17:40:23.928Z,28.20
2019-01-05T17:43:25.704Z,33.60
2019-01-05T17:46:21.040Z,16.75
2019-01-05T17:49:29.011Z,34.65
2019-01-05T17:52:17.116Z,22.75
2019-01-05T17:55:20.116Z,31.15
2019-01-05T17:58:08.253Z,22.05
2019-01-05T18:01:00.686Z,27.02
2019-01-05T18:03:48.530Z,16.90
2019-01-05T18:06:46.782Z,20.82
2019-01-05T18:09:36.244Z,32.23
2019-01-05T18:12:24.844Z,21.90
2019-01-05T18:15:13.290Z,19.10
2019-01-05T18:18:01.712Z,17.90
2019-01-05T18:20:50.451Z,28.77
2019-01-05T18:23:52.336Z,33.42
2019-01-05T18:26:42.250Z,36.03
2019-01-05T18:29:30.405Z,22.33
2019-01-05T18:32:18.043Z,43.30
2019-01-05T18:35:19.620Z,24.85
2019-01-05T18:38:14.674Z,22.07
2019-01-05T22:58:30.595Z,17.07
2019-01-05T23:01:29.201Z,14.05
2019-01-05T23:04:21.015Z,13.60
2019-01-05T23:07:10.454Z,14.60
2019-01-05T23:10:06.102Z,14.03
2019-01-05T23:13:10.672Z,13.55
2019-01-05T23:16:09.287Z,13.70
2019-01-05T23:18:58.756Z,14.60
2019-01-05T23:21:54.149Z,14.10
2019-01-05T23:24:38.542Z,14.25
2019-01-05T23:27:21.265Z,12.50
2019-01-05T23:30:09.437Z,15.60
2019-01-05T23:33:13.262Z,11.70
2019-01-05T23:36:05.725Z,8.63
2019-01-05T23:38:59.340Z,12.43
2019-01-05T23:41:47.641Z,14.05
2019-01-05T23:44:49.162Z,9.50
2019-01-05T23:47:44.913Z,11.10
2019-01-05T23:50:49.737Z,15.83
2019-01-05T23:53:37.788Z,10.37
2019-01-05T23:56:42.388Z,13.30
2019-01-05T23:59:30.099Z,8.33
